sensor_id;sensor_type;location;lat;lon;timestamp;temperature;humidity
6930;DHT22;3504;52.616;13.238;2023-04-25T00:00:55;9.62;71.39
6930;DHT22;3504;52.616;13.238;2023-04-25T00:05:55;9.62;71.18
6930;DHT22;3504;52.616;13.238;2023-04-25T00:10:57;9.59;70.56
6930;DHT22;3504;52.616;13.238;2023-04-25T00:15:58;9.59;70.54
6930;DHT22;3504;52.616;13.238;2023-04-25T00:21:00;9.59;70.58
6930;DHT22;3504;52.616;13.238;2023-04-25T00:26:00;9.56;70.27
6930;DHT22;3504;52.616;13.238;2023-04-25T00:31:01;9.53;69.87
6930;DHT22;3504;52.616;13.238;2023-04-25T00:36:01;9.55;70.09
6930;DHT22;3504;52.616;13.238;2023-04-25T00:41:02;9.52;70.73
6930;DHT22;3504;52.616;13.238;2023-04-25T00:46:03;9.51;70.25
6930;DHT22;3504;52.616;13.238;2023-04-25T00:51:03;9.45;70.10
6930;DHT22;3504;52.616;13.238;2023-04-25T00:56:04;9.45;70.25
6930;DHT22;3504;52.616;13.238;2023-04-25T01:01:06;9.39;70.28
6930;DHT22;3504;52.616;13.238;2023-04-25T01:06:09;9.41;70.33
6930;DHT22;3504;52.616;13.238;2023-04-25T01:11:09;9.36;70.35
6930;DHT22;3504;52.616;13.238;2023-04-25T01:16:10;9.41;70.34
6930;DHT22;3504;52.616;13.238;2023-04-25T01:21:12;9.36;70.30
6930;DHT22;3504;52.616;13.238;2023-04-25T01:26:13;9.35;70.24
6930;DHT22;3504;52.616;13.238;2023-04-25T01:31:15;9.36;70.63
6930;DHT22;3504;52.616;13.238;2023-04-25T01:36:18;9.35;70.33
6930;DHT22;3504;52.616;13.238;2023-04-25T01:41:19;9.27;70.48
6930;DHT22;3504;52.616;13.238;2023-04-25T01:46:20;9.27;70.86
6930;DHT22;3504;52.616;13.238;2023-04-25T01:51:20;9.24;70.68
6930;DHT22;3504;52.616;13.238;2023-04-25T01:56:21;9.27;70.71
6930;DHT22;3504;52.616;13.238;2023-04-25T02:01:21;9.21;70.73
6930;DHT22;3504;52.616;13.238;2023-04-25T02:06:37;9.22;71.14
6930;DHT22;3504;52.616;13.238;2023-04-25T02:11:38;9.15;71.26
6930;DHT22;3504;52.616;13.238;2023-04-25T02:16:58;9.12;71.44
6930;DHT22;3504;52.616;13.238;2023-04-25T02:21:58;9.14;71.29
6930;DHT22;3504;52.616;13.238;2023-04-25T02:26:59;9.14;71.36
6930;DHT22;3504;52.616;13.238;2023-04-25T02:32:00;9.14;71.52
6930;DHT22;3504;52.616;13.238;2023-04-25T02:37:00;9.11;71.45
6930;DHT22;3504;52.616;13.238;2023-04-25T02:42:01;9.10;71.66
6930;DHT22;3504;52.616;13.238;2023-04-25T02:47:03;9.14;71.57
6930;DHT22;3504;52.616;13.238;2023-04-25T02:52:04;9.10;71.81
6930;DHT22;3504;52.616;13.238;2023-04-25T02:57:05;9.08;71.67
6930;DHT22;3504;52.616;13.238;2023-04-25T03:02:10;9.08;72.08
6930;DHT22;3504;52.616;13.238;2023-04-25T03:07:10;9.08;72.19
6930;DHT22;3504;52.616;13.238;2023-04-25T03:12:11;9.03;71.98
6930;DHT22;3504;52.616;13.238;2023-04-25T03:17:12;9.01;72.20
6930;DHT22;3504;52.616;13.238;2023-04-25T03:22:13;9.03;72.25
6930;DHT22;3504;52.616;13.238;2023-04-25T03:27:14;8.98;72.48
6930;DHT22;3504;52.616;13.238;2023-04-25T03:32:14;8.98;72.27
6930;DHT22;3504;52.616;13.238;2023-04-25T03:37:15;8.98;72.52
6930;DHT22;3504;52.616;13.238;2023-04-25T03:42:16;8.96;72.77
6930;DHT22;3504;52.616;13.238;2023-04-25T03:47:18;8.93;72.66
6930;DHT22;3504;52.616;13.238;2023-04-25T03:52:20;8.93;72.70
6930;DHT22;3504;52.616;13.238;2023-04-25T03:57:21;8.93;72.72
6930;DHT22;3504;52.616;13.238;2023-04-25T04:02:22;8.94;73.18
6930;DHT22;3504;52.616;13.238;2023-04-25T04:07:24;8.96;73.16
6930;DHT22;3504;52.616;13.238;2023-04-25T04:12:28;8.94;72.83
6930;DHT22;3504;52.616;13.238;2023-04-25T04:17:29;8.96;73.05
6930;DHT22;3504;52.616;13.238;2023-04-25T04:22:31;8.90;73.10
6930;DHT22;3504;52.616;13.238;2023-04-25T04:27:37;8.93;73.03
6930;DHT22;3504;52.616;13.238;2023-04-25T04:32:52;8.90;72.97
6930;DHT22;3504;52.616;13.238;2023-04-25T04:37:53;8.93;73.15
6930;DHT22;3504;52.616;13.238;2023-04-25T04:42:56;8.98;73.01
6930;DHT22;3504;52.616;13.238;2023-04-25T04:48:24;9.00;72.93
6930;DHT22;3504;52.616;13.238;2023-04-25T04:53:38;9.04;72.97
6930;DHT22;3504;52.616;13.238;2023-04-25T04:59:08;9.07;72.90
6930;DHT22;3504;52.616;13.238;2023-04-25T05:04:09;9.12;72.78
6930;DHT22;3504;52.616;13.238;2023-04-25T05:09:21;9.11;72.88
6930;DHT22;3504;52.616;13.238;2023-04-25T05:14:49;9.12;72.65
6930;DHT22;3504;52.616;13.238;2023-04-25T05:20:08;9.15;72.95
6930;DHT22;3504;52.616;13.238;2023-04-25T05:25:24;9.05;73.01
6930;DHT22;3504;52.616;13.238;2023-04-25T05:30:40;9.11;73.26
6930;DHT22;3504;52.616;13.238;2023-04-25T05:35:46;9.10;73.28
6930;DHT22;3504;52.616;13.238;2023-04-25T05:40:48;9.12;73.46
6930;DHT22;3504;52.616;13.238;2023-04-25T05:46:27;9.14;73.57
6930;DHT22;3504;52.616;13.238;2023-04-25T05:51:47;9.24;73.63
6930;DHT22;3504;52.616;13.238;2023-04-25T05:57:06;9.27;73.98
6930;DHT22;3504;52.616;13.238;2023-04-25T06:02:07;9.32;74.07
6930;DHT22;3504;52.616;13.238;2023-04-25T06:07:09;9.30;73.81
6930;DHT22;3504;52.616;13.238;2023-04-25T06:12:10;9.25;74.25
6930;DHT22;3504;52.616;13.238;2023-04-25T06:17:11;9.24;74.30
6930;DHT22;3504;52.616;13.238;2023-04-25T06:22:12;9.30;74.58
6930;DHT22;3504;52.616;13.238;2023-04-25T06:27:15;9.28;74.49
6930;DHT22;3504;52.616;13.238;2023-04-25T06:32:15;9.24;74.58
6930;DHT22;3504;52.616;13.238;2023-04-25T06:37:16;9.22;74.85
6930;DHT22;3504;52.616;13.238;2023-04-25T06:42:17;9.20;75.03
6930;DHT22;3504;52.616;13.238;2023-04-25T06:47:26;9.18;75.17
6930;DHT22;3504;52.616;13.238;2023-04-25T06:52:27;9.12;75.66
6930;DHT22;3504;52.616;13.238;2023-04-25T06:57:28;9.12;75.83
6930;DHT22;3504;52.616;13.238;2023-04-25T07:02:33;9.14;75.47
6930;DHT22;3504;52.616;13.238;2023-04-25T07:07:34;9.20;75.35
6930;DHT22;3504;52.616;13.238;2023-04-25T07:12:36;9.38;75.03
6930;DHT22;3504;52.616;13.238;2023-04-25T07:17:37;9.45;73.73
6930;DHT22;3504;52.616;13.238;2023-04-25T07:22:38;9.43;73.65
6930;DHT22;3504;52.616;13.238;2023-04-25T07:27:39;9.45;72.24
6930;DHT22;3504;52.616;13.238;2023-04-25T07:32:46;9.39;69.65
6930;DHT22;3504;52.616;13.238;2023-04-25T07:37:48;9.48;70.21
6930;DHT22;3504;52.616;13.238;2023-04-25T07:42:52;9.66;70.29
6930;DHT22;3504;52.616;13.238;2023-04-25T07:48:00;9.89;70.21
6930;DHT22;3504;52.616;13.238;2023-04-25T07:53:03;10.10;69.75
6930;DHT22;3504;52.616;13.238;2023-04-25T07:58:11;10.09;68.40
6930;DHT22;3504;52.616;13.238;2023-04-25T08:03:15;10.13;69.29
6930;DHT22;3504;52.616;13.238;2023-04-25T08:08:16;10.33;69.57
6930;DHT22;3504;52.616;13.238;2023-04-25T08:13:17;10.42;67.95
6930;DHT22;3504;52.616;13.238;2023-04-25T08:18:19;10.46;67.79
6930;DHT22;3504;52.616;13.238;2023-04-25T08:23:22;10.51;67.80
6930;DHT22;3504;52.616;13.238;2023-04-25T08:28:28;10.38;61.95
6930;DHT22;3504;52.616;13.238;2023-04-25T08:33:31;10.49;61.64
6930;DHT22;3504;52.616;13.238;2023-04-25T08:38:46;10.63;61.16
6930;DHT22;3504;52.616;13.238;2023-04-25T08:43:48;10.75;60.53
6930;DHT22;3504;52.616;13.238;2023-04-25T08:48:52;10.88;60.79
6930;DHT22;3504;52.616;13.238;2023-04-25T08:53:53;11.12;60.50
6930;DHT22;3504;52.616;13.238;2023-04-25T08:58:55;11.42;58.59
6930;DHT22;3504;52.616;13.238;2023-04-25T09:03:57;12.11;57.81
6930;DHT22;3504;52.616;13.238;2023-04-25T09:09:03;12.66;53.23
6930;DHT22;3504;52.616;13.238;2023-04-25T09:14:22;12.80;51.74
6930;DHT22;3504;52.616;13.238;2023-04-25T09:19:36;12.83;50.15
6930;DHT22;3504;52.616;13.238;2023-04-25T09:24:45;12.48;49.97
6930;DHT22;3504;52.616;13.238;2023-04-25T09:29:58;12.50;51.41
6930;DHT22;3504;52.616;13.238;2023-04-25T09:35:03;12.36;49.82
6930;DHT22;3504;52.616;13.238;2023-04-25T09:40:06;12.55;47.14
6930;DHT22;3504;52.616;13.238;2023-04-25T09:45:13;12.74;45.80
6930;DHT22;3504;52.616;13.238;2023-04-25T09:50:17;13.35;48.83
6930;DHT22;3504;52.616;13.238;2023-04-25T09:55:24;13.95;45.23
6930;DHT22;3504;52.616;13.238;2023-04-25T10:00:25;13.75;42.96
6930;DHT22;3504;52.616;13.238;2023-04-25T10:05:28;13.10;45.00
6930;DHT22;3504;52.616;13.238;2023-04-25T10:10:30;12.63;45.21
6930;DHT22;3504;52.616;13.238;2023-04-25T10:15:36;12.30;44.79
6930;DHT22;3504;52.616;13.238;2023-04-25T10:20:37;12.52;46.12
6930;DHT22;3504;52.616;13.238;2023-04-25T10:25:37;12.62;44.69
6930;DHT22;3504;52.616;13.238;2023-04-25T10:31:03;12.52;44.31
6930;DHT22;3504;52.616;13.238;2023-04-25T10:36:21;12.48;44.50
6930;DHT22;3504;52.616;13.238;2023-04-25T10:41:22;12.30;43.85
6930;DHT22;3504;52.616;13.238;2023-04-25T10:46:24;12.49;45.45
6930;DHT22;3504;52.616;13.238;2023-04-25T10:51:34;12.26;45.31
6930;DHT22;3504;52.616;13.238;2023-04-25T10:56:41;11.78;46.13
6930;DHT22;3504;52.616;13.238;2023-04-25T11:01:51;11.15;45.58
6930;DHT22;3504;52.616;13.238;2023-04-25T11:12:21;11.02;43.79
6930;DHT22;3504;52.616;13.238;2023-04-25T11:17:25;11.19;44.93
6930;DHT22;3504;52.616;13.238;2023-04-25T11:22:27;11.26;44.71
6930;DHT22;3504;52.616;13.238;2023-04-25T11:27:28;11.61;45.51
6930;DHT22;3504;52.616;13.238;2023-04-25T11:32:29;11.66;44.03
6930;DHT22;3504;52.616;13.238;2023-04-25T11:37:29;11.84;45.52
6930;DHT22;3504;52.616;13.238;2023-04-25T11:42:30;11.94;44.82
6930;DHT22;3504;52.616;13.238;2023-04-25T11:47:31;11.87;43.63
6930;DHT22;3504;52.616;13.238;2023-04-25T11:52:50;11.61;44.98
6930;DHT22;3504;52.616;13.238;2023-04-25T11:57:50;11.61;45.48
6930;DHT22;3504;52.616;13.238;2023-04-25T12:02:56;11.57;45.04
6930;DHT22;3504;52.616;13.238;2023-04-25T12:08:09;11.74;44.81
6930;DHT22;3504;52.616;13.238;2023-04-25T12:13:39;12.17;44.77
6930;DHT22;3504;52.616;13.238;2023-04-25T12:18:42;12.45;44.40
6930;DHT22;3504;52.616;13.238;2023-04-25T12:23:43;12.49;44.70
6930;DHT22;3504;52.616;13.238;2023-04-25T12:28:45;12.28;43.33
6930;DHT22;3504;52.616;13.238;2023-04-25T12:33:47;12.14;44.35
6930;DHT22;3504;52.616;13.238;2023-04-25T12:38:48;11.99;43.55
6930;DHT22;3504;52.616;13.238;2023-04-25T12:43:49;12.06;45.51
6930;DHT22;3504;52.616;13.238;2023-04-25T12:48:50;12.25;44.85
6930;DHT22;3504;52.616;13.238;2023-04-25T12:53:51;12.59;43.35
6930;DHT22;3504;52.616;13.238;2023-04-25T12:58:52;12.85;42.57
6930;DHT22;3504;52.616;13.238;2023-04-25T13:03:53;12.96;43.77
6930;DHT22;3504;52.616;13.238;2023-04-25T13:08:54;12.52;43.26
6930;DHT22;3504;52.616;13.238;2023-04-25T13:13:55;12.15;43.66
6930;DHT22;3504;52.616;13.238;2023-04-25T13:18:56;11.81;45.01
6930;DHT22;3504;52.616;13.238;2023-04-25T13:23:56;11.57;44.95
6930;DHT22;3504;52.616;13.238;2023-04-25T13:28:57;11.47;47.55
6930;DHT22;3504;52.616;13.238;2023-04-25T13:33:57;11.51;46.76
6930;DHT22;3504;52.616;13.238;2023-04-25T13:38:58;11.58;46.59
6930;DHT22;3504;52.616;13.238;2023-04-25T13:44:05;11.88;47.08
6930;DHT22;3504;52.616;13.238;2023-04-25T13:49:15;12.02;46.14
6930;DHT22;3504;52.616;13.238;2023-04-25T13:54:16;12.17;45.88
6930;DHT22;3504;52.616;13.238;2023-04-25T13:59:16;12.15;45.50
6930;DHT22;3504;52.616;13.238;2023-04-25T14:04:17;12.06;45.52
6930;DHT22;3504;52.616;13.238;2023-04-25T14:09:19;11.95;47.58
6930;DHT22;3504;52.616;13.238;2023-04-25T14:14:23;11.84;46.31
6930;DHT22;3504;52.616;13.238;2023-04-25T14:19:24;11.61;47.03
6930;DHT22;3504;52.616;13.238;2023-04-25T14:24:25;11.57;47.87
6930;DHT22;3504;52.616;13.238;2023-04-25T14:29:27;11.57;48.02
6930;DHT22;3504;52.616;13.238;2023-04-25T14:34:28;11.58;48.84
6930;DHT22;3504;52.616;13.238;2023-04-25T14:39:28;11.39;49.18
6930;DHT22;3504;52.616;13.238;2023-04-25T14:44:29;11.09;48.99
6930;DHT22;3504;52.616;13.238;2023-04-25T14:49:29;10.84;50.84
6930;DHT22;3504;52.616;13.238;2023-04-25T14:54:30;10.68;49.52
6930;DHT22;3504;52.616;13.238;2023-04-25T14:59:31;10.74;49.63
6930;DHT22;3504;52.616;13.238;2023-04-25T15:04:31;10.86;47.33
6930;DHT22;3504;52.616;13.238;2023-04-25T15:09:32;10.84;47.71
6930;DHT22;3504;52.616;13.238;2023-04-25T15:14:33;11.06;47.50
6930;DHT22;3504;52.616;13.238;2023-04-25T15:19:34;11.12;47.15
6930;DHT22;3504;52.616;13.238;2023-04-25T15:24:34;11.31;46.95
6930;DHT22;3504;52.616;13.238;2023-04-25T15:29:35;11.43;46.31
6930;DHT22;3504;52.616;13.238;2023-04-25T15:34:37;11.31;47.13
6930;DHT22;3504;52.616;13.238;2023-04-25T15:39:37;11.07;47.11
6930;DHT22;3504;52.616;13.238;2023-04-25T15:44:38;11.06;49.10
6930;DHT22;3504;52.616;13.238;2023-04-25T15:49:39;11.05;47.91
6930;DHT22;3504;52.616;13.238;2023-04-25T15:54:40;11.03;48.37
6930;DHT22;3504;52.616;13.238;2023-04-25T15:59:40;10.97;47.68
6930;DHT22;3504;52.616;13.238;2023-04-25T16:04:41;10.84;47.55
6930;DHT22;3504;52.616;13.238;2023-04-25T16:09:42;10.58;45.44
6930;DHT22;3504;52.616;13.238;2023-04-25T16:14:44;10.51;46.24
6930;DHT22;3504;52.616;13.238;2023-04-25T16:19:44;10.45;47.51
6930;DHT22;3504;52.616;13.238;2023-04-25T16:24:45;10.42;47.50
6930;DHT22;3504;52.616;13.238;2023-04-25T16:29:46;10.44;47.00
6930;DHT22;3504;52.616;13.238;2023-04-25T16:34:48;10.57;47.84
6930;DHT22;3504;52.616;13.238;2023-04-25T16:39:52;10.58;46.44
6930;DHT22;3504;52.616;13.238;2023-04-25T16:44:52;10.55;47.50
6930;DHT22;3504;52.616;13.238;2023-04-25T16:49:53;10.46;47.49
6930;DHT22;3504;52.616;13.238;2023-04-25T16:54:53;10.51;48.93
6930;DHT22;3504;52.616;13.238;2023-04-25T16:59:54;10.25;48.98
6930;DHT22;3504;52.616;13.238;2023-04-25T17:04:55;10.27;49.65
6930;DHT22;3504;52.616;13.238;2023-04-25T17:09:59;10.27;49.77
6930;DHT22;3504;52.616;13.238;2023-04-25T17:14:59;10.21;50.95
6930;DHT22;3504;52.616;13.238;2023-04-25T17:20:00;10.12;51.07
6930;DHT22;3504;52.616;13.238;2023-04-25T17:25:01;10.03;51.74
6930;DHT22;3504;52.616;13.238;2023-04-25T17:30:03;9.94;51.99
6930;DHT22;3504;52.616;13.238;2023-04-25T17:35:04;9.89;52.65
6930;DHT22;3504;52.616;13.238;2023-04-25T17:40:06;9.67;52.54
6930;DHT22;3504;52.616;13.238;2023-04-25T17:45:11;9.65;53.12
6930;DHT22;3504;52.616;13.238;2023-04-25T17:50:13;9.56;53.53
6930;DHT22;3504;52.616;13.238;2023-04-25T17:55:15;9.46;54.19
6930;DHT22;3504;52.616;13.238;2023-04-25T18:00:16;9.38;54.57
6930;DHT22;3504;52.616;13.238;2023-04-25T18:05:17;9.30;54.92
6930;DHT22;3504;52.616;13.238;2023-04-25T18:10:18;9.22;55.44
6930;DHT22;3504;52.616;13.238;2023-04-25T18:15:19;9.08;56.19
6930;DHT22;3504;52.616;13.238;2023-04-25T18:20:21;9.05;56.60
6930;DHT22;3504;52.616;13.238;2023-04-25T18:25:22;8.94;55.53
6930;DHT22;3504;52.616;13.238;2023-04-25T18:30:23;8.86;56.19
6930;DHT22;3504;52.616;13.238;2023-04-25T18:35:24;8.77;55.30
6930;DHT22;3504;52.616;13.238;2023-04-25T18:40:26;8.69;55.71
6930;DHT22;3504;52.616;13.238;2023-04-25T18:45:27;8.64;55.63
6930;DHT22;3504;52.616;13.238;2023-04-25T18:50:27;8.57;55.79
6930;DHT22;3504;52.616;13.238;2023-04-25T18:55:28;8.52;55.17
6930;DHT22;3504;52.616;13.238;2023-04-25T19:00:29;8.46;55.09
6930;DHT22;3504;52.616;13.238;2023-04-25T19:05:30;8.45;54.95
6930;DHT22;3504;52.616;13.238;2023-04-25T19:10:30;8.38;54.49
6930;DHT22;3504;52.616;13.238;2023-04-25T19:15:31;8.32;54.78
6930;DHT22;3504;52.616;13.238;2023-04-25T19:20:32;8.25;54.76
6930;DHT22;3504;52.616;13.238;2023-04-25T19:25:33;8.16;55.52
6930;DHT22;3504;52.616;13.238;2023-04-25T19:30:34;8.11;55.71
6930;DHT22;3504;52.616;13.238;2023-04-25T19:35:34;7.99;55.97
6930;DHT22;3504;52.616;13.238;2023-04-25T19:40:35;7.99;56.11
6930;DHT22;3504;52.616;13.238;2023-04-25T19:45:35;7.93;56.30
6930;DHT22;3504;52.616;13.238;2023-04-25T19:50:36;7.87;57.02
6930;DHT22;3504;52.616;13.238;2023-04-25T19:55:36;7.77;57.48
6930;DHT22;3504;52.616;13.238;2023-04-25T20:00:37;7.64;58.11
6930;DHT22;3504;52.616;13.238;2023-04-25T20:05:38;7.56;58.69
6930;DHT22;3504;52.616;13.238;2023-04-25T20:10:39;7.51;58.77
6930;DHT22;3504;52.616;13.238;2023-04-25T20:15:40;7.54;59.39
6930;DHT22;3504;52.616;13.238;2023-04-25T20:20:40;7.39;59.70
6930;DHT22;3504;52.616;13.238;2023-04-25T20:25:40;7.30;60.32
6930;DHT22;3504;52.616;13.238;2023-04-25T20:30:42;7.27;60.62
6930;DHT22;3504;52.616;13.238;2023-04-25T20:35:43;7.18;61.32
6930;DHT22;3504;52.616;13.238;2023-04-25T20:40:44;7.06;61.16
6930;DHT22;3504;52.616;13.238;2023-04-25T20:45:44;7.06;61.36
6930;DHT22;3504;52.616;13.238;2023-04-25T20:50:44;7.01;61.68
6930;DHT22;3504;52.616;13.238;2023-04-25T20:55:46;6.98;62.30
6930;DHT22;3504;52.616;13.238;2023-04-25T21:00:47;6.85;62.46
6930;DHT22;3504;52.616;13.238;2023-04-25T21:05:48;6.77;63.37
6930;DHT22;3504;52.616;13.238;2023-04-25T21:10:48;6.67;63.23
6930;DHT22;3504;52.616;13.238;2023-04-25T21:15:49;6.64;63.20
6930;DHT22;3504;52.616;13.238;2023-04-25T21:20:49;6.54;63.08
6930;DHT22;3504;52.616;13.238;2023-04-25T21:25:50;6.47;63.22
6930;DHT22;3504;52.616;13.238;2023-04-25T21:30:52;6.45;63.20
6930;DHT22;3504;52.616;13.238;2023-04-25T21:35:53;6.40;63.17
6930;DHT22;3504;52.616;13.238;2023-04-25T21:40:54;6.34;63.44
6930;DHT22;3504;52.616;13.238;2023-04-25T21:45:54;6.27;63.57
6930;DHT22;3504;52.616;13.238;2023-04-25T21:50:55;6.20;63.93
6930;DHT22;3504;52.616;13.238;2023-04-25T21:55:55;6.17;63.95
6930;DHT22;3504;52.616;13.238;2023-04-25T22:00:56;6.11;64.04
6930;DHT22;3504;52.616;13.238;2023-04-25T22:05:58;6.05;64.49
6930;DHT22;3504;52.616;13.238;2023-04-25T22:10:59;5.99;64.72
6930;DHT22;3504;52.616;13.238;2023-04-25T22:16:00;5.98;64.80
6930;DHT22;3504;52.616;13.238;2023-04-25T22:21:01;5.89;65.29
6930;DHT22;3504;52.616;13.238;2023-04-25T22:26:02;5.86;65.72
6930;DHT22;3504;52.616;13.238;2023-04-25T22:31:03;5.83;65.59
6930;DHT22;3504;52.616;13.238;2023-04-25T22:36:03;5.79;65.99
6930;DHT22;3504;52.616;13.238;2023-04-25T22:41:07;5.78;66.31
6930;DHT22;3504;52.616;13.238;2023-04-25T22:46:18;5.74;66.15
6930;DHT22;3504;52.616;13.238;2023-04-25T22:51:19;5.61;67.01
6930;DHT22;3504;52.616;13.238;2023-04-25T22:56:19;5.48;67.53
6930;DHT22;3504;52.616;13.238;2023-04-25T23:01:20;5.47;67.99
6930;DHT22;3504;52.616;13.238;2023-04-25T23:06:20;5.41;68.35
6930;DHT22;3504;52.616;13.238;2023-04-25T23:11:22;5.35;68.37
6930;DHT22;3504;52.616;13.238;2023-04-25T23:16:23;5.35;68.58
6930;DHT22;3504;52.616;13.238;2023-04-25T23:21:24;5.25;68.99
6930;DHT22;3504;52.616;13.238;2023-04-25T23:26:24;5.27;68.93
6930;DHT22;3504;52.616;13.238;2023-04-25T23:31:25;5.16;69.57
6930;DHT22;3504;52.616;13.238;2023-04-25T23:36:26;5.21;69.52
6930;DHT22;3504;52.616;13.238;2023-04-25T23:41:27;5.13;69.81
6930;DHT22;3504;52.616;13.238;2023-04-25T23:46:27;5.14;69.79
6930;DHT22;3504;52.616;13.238;2023-04-25T23:51:28;5.11;70.30
6930;DHT22;3504;52.616;13.238;2023-04-25T23:56:29;5.06;70.42
